Attica, KS

4:45 AM CDT on April 02, 2015 (GMT -0500)
NonFedAWOS | | Change Station
CLOSE
Current Station
Personal Weather Station
Location: Harper, KS
Elevation: 1426 ft
Nearby Weather Stations

Elev 1426 ft 37.28 °N, 98.04 °W | Updated 30 minutes ago

Partly Cloudy
Partly Cloudy
63 °F
Feels Like 63 °F
N
12
Wind Variable Wind from North
Gusts 16.0 mph

Today
High -- | Low -- °F
--% Chance of Precip.
Yesterday
High -- | Low -- °F
Precip. -- in
7:17 AM 7:56 PM
Waxing Gibbous, 96% visible
Pressure 29.67 in
Visibility 10.0 miles
Clouds Clear
Dew Point 59 °F
Humidity 88%
Rainfall in
Snow Depth Not available.
UV 0 out of 12
Pollen 9.80 out of 12
Air Quality Not available.
Flu Activity Not available.
METAR KAVK 020935Z AUTO 36021G28KT 10SM CLR 15/13 A2967 RMK AO2

More Conditions Fewer Conditions

Pressure 29.67 in
Visibility 10.0 miles
Clouds Clear
Dew Point 59 °F
Humidity 88%
Rainfall in
Snow Depth Not available.
UV 0 out of 12
Pollen 9.80 out of 12
Air Quality Not available.
Flu Activity Not available.
METAR KAVK 020935Z AUTO 36021G28KT 10SM CLR 15/13 A2967 RMK AO2

More Conditions Fewer Conditions

10-Day Weather Forecast

Almanac

Astronomy

Apr. 02, 2015 Rise Set
Actual Time
Civil Twilight
Nautical Twilight
Astronomical Twilight
Moon
Length of Visible Light
Length of Day
Tomorrow will be .
, % of the Moon is Illuminated

Today's Extremes

State Highs State Lows

Community

WunderPhotos

Upload Photos

1,810,216 photos uploaded!

WunderBlogs® & News

Nearby

Air Quality

  Air Quality AQ Index Pollutant
Not available.

Snow Depth

Station Depth Elevation

Earthquake Activity

City Distance Mag. Time & Date
Minimum magnitude displayed is 2.5.

Coastal Water Temperatures

Place Temperature

Stations

Nearby Weather Stations

Station Location Temp. Windchill Dew Point Humidity Wind Precip. Elev Updated Type